Alice, North Dakota
Current Conditions -  °F | °C
As of 5:55 AM on Thursday 27 Nov 2014 (Local Time) from KBAC Reporting Station
NA  
Wind Chill: -33°   Ceiling: NA
Heat Index: -20°   Visibility: NA
Dew Point: -24°   Wind: 5mph
Humidity: 83%   Direction: 180°S
Pressure: 30.46"   Gusts: NA
Location:  46.7681°N, 97.6777°W
Report Text: KBAC 271155Z AUTO 18004KT M29/M31 A3046 RMK AO2
Loading
Personal Weather Stations






























Interactive Weather Map New forecast layout! Learn more

10-Day Weather Forecast

Advertisements
Track Severe Weather on mobile